sensor_id;sensor_type;location;lat;lon;timestamp;P1;durP1;ratioP1;P2;durP2;ratioP2
71183;SDS011;58887;51.980;4.464;2022-07-22T00:01:34;2.59;;;2.40;;
71183;SDS011;58887;51.980;4.464;2022-07-22T00:04:00;2.51;;;2.31;;
71183;SDS011;58887;51.980;4.464;2022-07-22T00:06:27;2.46;;;2.31;;
71183;SDS011;58887;51.980;4.464;2022-07-22T00:08:53;2.35;;;2.19;;
71183;SDS011;58887;51.980;4.464;2022-07-22T00:11:19;2.46;;;2.24;;
71183;SDS011;58887;51.980;4.464;2022-07-22T00:13:44;2.91;;;2.63;;
71183;SDS011;58887;51.980;4.464;2022-07-22T00:16:11;2.68;;;2.43;;
71183;SDS011;58887;51.980;4.464;2022-07-22T00:18:36;2.79;;;2.53;;
71183;SDS011;58887;51.980;4.464;2022-07-22T00:21:02;3.03;;;2.72;;
71183;SDS011;58887;51.980;4.464;2022-07-22T00:23:28;2.98;;;2.63;;
71183;SDS011;58887;51.980;4.464;2022-07-22T00:25:53;3.42;;;3.06;;
71183;SDS011;58887;51.980;4.464;2022-07-22T00:28:19;3.18;;;2.88;;
71183;SDS011;58887;51.980;4.464;2022-07-22T00:30:45;3.84;;;3.53;;
71183;SDS011;58887;51.980;4.464;2022-07-22T00:33:10;6.97;;;6.14;;
71183;SDS011;58887;51.980;4.464;2022-07-22T00:35:35;7.74;;;6.48;;
71183;SDS011;58887;51.980;4.464;2022-07-22T00:38:01;10.36;;;8.43;;
71183;SDS011;58887;51.980;4.464;2022-07-22T00:40:27;11.11;;;8.77;;
71183;SDS011;58887;51.980;4.464;2022-07-22T00:42:52;10.73;;;8.55;;
71183;SDS011;58887;51.980;4.464;2022-07-22T00:45:18;11.56;;;9.19;;
71183;SDS011;58887;51.980;4.464;2022-07-22T00:47:44;10.60;;;8.51;;
71183;SDS011;58887;51.980;4.464;2022-07-22T00:50:09;7.96;;;6.63;;
71183;SDS011;58887;51.980;4.464;2022-07-22T00:52:36;6.52;;;5.44;;
71183;SDS011;58887;51.980;4.464;2022-07-22T00:55:02;5.32;;;4.49;;
71183;SDS011;58887;51.980;4.464;2022-07-22T00:57:29;5.22;;;4.37;;
71183;SDS011;58887;51.980;4.464;2022-07-22T00:59:55;4.29;;;3.76;;
71183;SDS011;58887;51.980;4.464;2022-07-22T01:02:21;3.46;;;3.12;;
71183;SDS011;58887;51.980;4.464;2022-07-22T01:04:46;2.68;;;2.42;;
71183;SDS011;58887;51.980;4.464;2022-07-22T01:07:12;2.72;;;2.49;;
71183;SDS011;58887;51.980;4.464;2022-07-22T01:09:41;2.49;;;2.30;;
71183;SDS011;58887;51.980;4.464;2022-07-22T01:12:08;2.51;;;2.38;;
71183;SDS011;58887;51.980;4.464;2022-07-22T01:14:34;2.01;;;2.01;;
71183;SDS011;58887;51.980;4.464;2022-07-22T01:16:59;2.24;;;2.12;;
71183;SDS011;58887;51.980;4.464;2022-07-22T01:19:25;2.10;;;1.96;;
71183;SDS011;58887;51.980;4.464;2022-07-22T01:21:50;2.33;;;2.16;;
71183;SDS011;58887;51.980;4.464;2022-07-22T01:24:16;2.37;;;2.13;;
71183;SDS011;58887;51.980;4.464;2022-07-22T01:26:41;2.11;;;1.87;;
71183;SDS011;58887;51.980;4.464;2022-07-22T01:29:07;2.22;;;2.00;;
71183;SDS011;58887;51.980;4.464;2022-07-22T01:31:33;2.44;;;2.16;;
71183;SDS011;58887;51.980;4.464;2022-07-22T01:33:58;2.54;;;2.25;;
71183;SDS011;58887;51.980;4.464;2022-07-22T01:36:25;2.39;;;2.15;;
71183;SDS011;58887;51.980;4.464;2022-07-22T01:38:51;2.34;;;2.20;;
71183;SDS011;58887;51.980;4.464;2022-07-22T01:41:16;2.13;;;1.95;;
71183;SDS011;58887;51.980;4.464;2022-07-22T01:43:42;2.18;;;1.99;;
71183;SDS011;58887;51.980;4.464;2022-07-22T01:46:07;2.27;;;2.08;;
71183;SDS011;58887;51.980;4.464;2022-07-22T01:48:33;2.28;;;2.14;;
71183;SDS011;58887;51.980;4.464;2022-07-22T01:50:58;2.44;;;2.22;;
71183;SDS011;58887;51.980;4.464;2022-07-22T01:53:24;2.05;;;1.88;;
71183;SDS011;58887;51.980;4.464;2022-07-22T01:55:50;1.93;;;1.78;;
71183;SDS011;58887;51.980;4.464;2022-07-22T01:58:17;1.68;;;1.60;;
71183;SDS011;58887;51.980;4.464;2022-07-22T02:00:42;1.86;;;1.86;;
71183;SDS011;58887;51.980;4.464;2022-07-22T02:03:08;1.81;;;1.79;;
71183;SDS011;58887;51.980;4.464;2022-07-22T02:05:35;2.21;;;2.05;;
71183;SDS011;58887;51.980;4.464;2022-07-22T02:08:05;2.21;;;2.02;;
71183;SDS011;58887;51.980;4.464;2022-07-22T02:10:32;2.16;;;2.01;;
71183;SDS011;58887;51.980;4.464;2022-07-22T02:12:58;2.07;;;1.94;;
71183;SDS011;58887;51.980;4.464;2022-07-22T02:15:24;2.40;;;2.22;;
71183;SDS011;58887;51.980;4.464;2022-07-22T02:17:51;1.97;;;1.90;;
71183;SDS011;58887;51.980;4.464;2022-07-22T02:20:16;1.89;;;1.89;;
71183;SDS011;58887;51.980;4.464;2022-07-22T02:22:42;1.82;;;1.82;;
71183;SDS011;58887;51.980;4.464;2022-07-22T02:25:07;1.68;;;1.68;;
71183;SDS011;58887;51.980;4.464;2022-07-22T02:27:33;1.94;;;1.94;;
71183;SDS011;58887;51.980;4.464;2022-07-22T02:29:59;1.90;;;1.86;;
71183;SDS011;58887;51.980;4.464;2022-07-22T02:32:24;1.81;;;1.78;;
71183;SDS011;58887;51.980;4.464;2022-07-22T02:34:50;2.02;;;2.01;;
71183;SDS011;58887;51.980;4.464;2022-07-22T02:37:15;1.79;;;1.78;;
71183;SDS011;58887;51.980;4.464;2022-07-22T02:39:41;1.86;;;1.82;;
71183;SDS011;58887;51.980;4.464;2022-07-22T02:42:06;2.23;;;2.11;;
71183;SDS011;58887;51.980;4.464;2022-07-22T02:44:31;2.06;;;1.92;;
71183;SDS011;58887;51.980;4.464;2022-07-22T02:46:57;2.13;;;1.99;;
71183;SDS011;58887;51.980;4.464;2022-07-22T02:49:22;2.08;;;1.94;;
71183;SDS011;58887;51.980;4.464;2022-07-22T02:51:48;1.96;;;1.87;;
71183;SDS011;58887;51.980;4.464;2022-07-22T02:54:13;2.07;;;2.02;;
71183;SDS011;58887;51.980;4.464;2022-07-22T02:56:39;1.85;;;1.78;;
71183;SDS011;58887;51.980;4.464;2022-07-22T02:59:04;1.99;;;1.94;;
71183;SDS011;58887;51.980;4.464;2022-07-22T03:01:30;1.92;;;1.91;;
71183;SDS011;58887;51.980;4.464;2022-07-22T03:03:55;1.79;;;1.78;;
71183;SDS011;58887;51.980;4.464;2022-07-22T03:06:21;1.97;;;1.94;;
71183;SDS011;58887;51.980;4.464;2022-07-22T03:08:47;1.86;;;1.81;;
71183;SDS011;58887;51.980;4.464;2022-07-22T03:11:12;1.90;;;1.82;;
71183;SDS011;58887;51.980;4.464;2022-07-22T03:13:38;1.94;;;1.88;;
71183;SDS011;58887;51.980;4.464;2022-07-22T03:16:03;1.89;;;1.81;;
71183;SDS011;58887;51.980;4.464;2022-07-22T03:18:29;1.73;;;1.66;;
71183;SDS011;58887;51.980;4.464;2022-07-22T03:20:54;1.82;;;1.69;;
71183;SDS011;58887;51.980;4.464;2022-07-22T03:23:20;2.00;;;1.86;;
71183;SDS011;58887;51.980;4.464;2022-07-22T03:25:45;1.79;;;1.71;;
71183;SDS011;58887;51.980;4.464;2022-07-22T03:28:11;1.42;;;1.41;;
71183;SDS011;58887;51.980;4.464;2022-07-22T03:30:36;1.68;;;1.63;;
71183;SDS011;58887;51.980;4.464;2022-07-22T03:33:02;1.96;;;1.81;;
71183;SDS011;58887;51.980;4.464;2022-07-22T03:35:27;1.83;;;1.66;;
71183;SDS011;58887;51.980;4.464;2022-07-22T03:37:53;2.13;;;1.95;;
71183;SDS011;58887;51.980;4.464;2022-07-22T03:40:18;1.88;;;1.73;;
71183;SDS011;58887;51.980;4.464;2022-07-22T03:42:44;2.23;;;2.04;;
71183;SDS011;58887;51.980;4.464;2022-07-22T03:45:09;2.23;;;2.00;;
71183;SDS011;58887;51.980;4.464;2022-07-22T03:47:35;1.91;;;1.73;;
71183;SDS011;58887;51.980;4.464;2022-07-22T03:50:01;1.90;;;1.75;;
71183;SDS011;58887;51.980;4.464;2022-07-22T03:52:27;1.59;;;1.46;;
71183;SDS011;58887;51.980;4.464;2022-07-22T03:54:54;1.81;;;1.63;;
71183;SDS011;58887;51.980;4.464;2022-07-22T03:57:19;1.79;;;1.62;;
71183;SDS011;58887;51.980;4.464;2022-07-22T03:59:46;1.73;;;1.56;;
71183;SDS011;58887;51.980;4.464;2022-07-22T04:02:11;1.89;;;1.72;;
71183;SDS011;58887;51.980;4.464;2022-07-22T04:04:37;1.78;;;1.61;;
71183;SDS011;58887;51.980;4.464;2022-07-22T04:07:02;1.66;;;1.51;;
71183;SDS011;58887;51.980;4.464;2022-07-22T04:09:29;1.86;;;1.69;;
71183;SDS011;58887;51.980;4.464;2022-07-22T04:11:54;1.76;;;1.58;;
71183;SDS011;58887;51.980;4.464;2022-07-22T04:14:19;1.75;;;1.60;;
71183;SDS011;58887;51.980;4.464;2022-07-22T04:16:45;1.83;;;1.69;;
71183;SDS011;58887;51.980;4.464;2022-07-22T04:19:10;1.83;;;1.68;;
71183;SDS011;58887;51.980;4.464;2022-07-22T04:21:36;1.75;;;1.60;;
71183;SDS011;58887;51.980;4.464;2022-07-22T04:24:02;1.86;;;1.71;;
71183;SDS011;58887;51.980;4.464;2022-07-22T04:26:28;1.76;;;1.62;;
71183;SDS011;58887;51.980;4.464;2022-07-22T04:28:54;1.68;;;1.55;;
71183;SDS011;58887;51.980;4.464;2022-07-22T04:31:19;1.69;;;1.57;;
71183;SDS011;58887;51.980;4.464;2022-07-22T04:33:45;1.78;;;1.66;;
71183;SDS011;58887;51.980;4.464;2022-07-22T04:36:11;1.73;;;1.61;;
71183;SDS011;58887;51.980;4.464;2022-07-22T04:38:36;1.68;;;1.57;;
71183;SDS011;58887;51.980;4.464;2022-07-22T04:41:02;1.91;;;1.79;;
71183;SDS011;58887;51.980;4.464;2022-07-22T04:43:27;1.81;;;1.69;;
71183;SDS011;58887;51.980;4.464;2022-07-22T04:45:53;1.76;;;1.61;;
71183;SDS011;58887;51.980;4.464;2022-07-22T04:48:20;1.79;;;1.62;;
71183;SDS011;58887;51.980;4.464;2022-07-22T04:50:45;2.01;;;1.82;;
71183;SDS011;58887;51.980;4.464;2022-07-22T04:53:11;1.86;;;1.67;;
71183;SDS011;58887;51.980;4.464;2022-07-22T04:55:36;2.03;;;1.81;;
71183;SDS011;58887;51.980;4.464;2022-07-22T04:58:02;2.08;;;1.86;;
71183;SDS011;58887;51.980;4.464;2022-07-22T05:00:27;1.88;;;1.70;;
71183;SDS011;58887;51.980;4.464;2022-07-22T05:02:53;1.90;;;1.73;;
71183;SDS011;58887;51.980;4.464;2022-07-22T05:05:19;2.05;;;1.85;;
71183;SDS011;58887;51.980;4.464;2022-07-22T05:07:45;2.30;;;2.10;;
71183;SDS011;58887;51.980;4.464;2022-07-22T05:10:11;1.96;;;1.86;;
71183;SDS011;58887;51.980;4.464;2022-07-22T05:12:36;1.98;;;1.82;;
71183;SDS011;58887;51.980;4.464;2022-07-22T05:15:02;1.99;;;1.81;;
71183;SDS011;58887;51.980;4.464;2022-07-22T05:17:28;2.12;;;1.94;;
71183;SDS011;58887;51.980;4.464;2022-07-22T05:19:54;1.96;;;1.80;;
71183;SDS011;58887;51.980;4.464;2022-07-22T05:22:19;1.75;;;1.62;;
71183;SDS011;58887;51.980;4.464;2022-07-22T05:24:45;1.74;;;1.66;;
71183;SDS011;58887;51.980;4.464;2022-07-22T05:27:10;1.71;;;1.61;;
71183;SDS011;58887;51.980;4.464;2022-07-22T05:29:36;1.58;;;1.52;;
71183;SDS011;58887;51.980;4.464;2022-07-22T05:32:01;1.71;;;1.65;;
71183;SDS011;58887;51.980;4.464;2022-07-22T05:34:27;1.81;;;1.72;;
71183;SDS011;58887;51.980;4.464;2022-07-22T05:36:52;1.93;;;1.83;;
71183;SDS011;58887;51.980;4.464;2022-07-22T05:39:18;1.87;;;1.77;;
71183;SDS011;58887;51.980;4.464;2022-07-22T05:41:43;1.52;;;1.43;;
71183;SDS011;58887;51.980;4.464;2022-07-22T05:44:09;1.41;;;1.33;;
71183;SDS011;58887;51.980;4.464;2022-07-22T05:46:34;1.34;;;1.26;;
71183;SDS011;58887;51.980;4.464;2022-07-22T05:49:00;1.48;;;1.41;;
71183;SDS011;58887;51.980;4.464;2022-07-22T05:51:25;1.28;;;1.27;;
71183;SDS011;58887;51.980;4.464;2022-07-22T05:53:51;1.35;;;1.30;;
71183;SDS011;58887;51.980;4.464;2022-07-22T05:56:16;1.33;;;1.29;;
71183;SDS011;58887;51.980;4.464;2022-07-22T05:58:42;1.37;;;1.33;;
71183;SDS011;58887;51.980;4.464;2022-07-22T06:01:10;1.37;;;1.34;;
71183;SDS011;58887;51.980;4.464;2022-07-22T06:03:36;1.30;;;1.30;;
71183;SDS011;58887;51.980;4.464;2022-07-22T06:06:03;1.41;;;1.41;;
71183;SDS011;58887;51.980;4.464;2022-07-22T06:08:33;1.43;;;1.43;;
71183;SDS011;58887;51.980;4.464;2022-07-22T06:11:00;1.15;;;1.15;;
71183;SDS011;58887;51.980;4.464;2022-07-22T06:13:26;1.42;;;1.38;;
71183;SDS011;58887;51.980;4.464;2022-07-22T06:15:52;1.49;;;1.39;;
71183;SDS011;58887;51.980;4.464;2022-07-22T06:18:17;1.40;;;1.31;;
71183;SDS011;58887;51.980;4.464;2022-07-22T06:20:43;1.36;;;1.29;;
71183;SDS011;58887;51.980;4.464;2022-07-22T06:23:09;1.35;;;1.33;;
71183;SDS011;58887;51.980;4.464;2022-07-22T06:25:35;1.30;;;1.22;;
71183;SDS011;58887;51.980;4.464;2022-07-22T06:28:01;1.23;;;1.21;;
71183;SDS011;58887;51.980;4.464;2022-07-22T06:30:26;1.15;;;1.15;;
71183;SDS011;58887;51.980;4.464;2022-07-22T06:32:52;1.17;;;1.17;;
71183;SDS011;58887;51.980;4.464;2022-07-22T06:35:18;1.39;;;1.35;;
71183;SDS011;58887;51.980;4.464;2022-07-22T06:37:43;1.28;;;1.18;;
71183;SDS011;58887;51.980;4.464;2022-07-22T06:40:09;1.44;;;1.32;;
71183;SDS011;58887;51.980;4.464;2022-07-22T06:42:36;1.43;;;1.31;;
71183;SDS011;58887;51.980;4.464;2022-07-22T06:45:01;1.54;;;1.40;;
71183;SDS011;58887;51.980;4.464;2022-07-22T06:47:28;1.60;;;1.46;;
71183;SDS011;58887;51.980;4.464;2022-07-22T06:49:53;1.60;;;1.46;;
71183;SDS011;58887;51.980;4.464;2022-07-22T06:52:19;1.67;;;1.51;;
71183;SDS011;58887;51.980;4.464;2022-07-22T06:54:44;1.56;;;1.41;;
71183;SDS011;58887;51.980;4.464;2022-07-22T06:57:09;1.37;;;1.25;;
71183;SDS011;58887;51.980;4.464;2022-07-22T06:59:36;1.73;;;1.57;;
71183;SDS011;58887;51.980;4.464;2022-07-22T07:02:01;1.60;;;1.47;;
71183;SDS011;58887;51.980;4.464;2022-07-22T07:04:27;1.53;;;1.41;;
71183;SDS011;58887;51.980;4.464;2022-07-22T07:06:52;1.45;;;1.34;;
71183;SDS011;58887;51.980;4.464;2022-07-22T07:09:18;1.60;;;1.48;;
71183;SDS011;58887;51.980;4.464;2022-07-22T07:11:43;1.52;;;1.43;;
71183;SDS011;58887;51.980;4.464;2022-07-22T07:14:09;1.52;;;1.46;;
71183;SDS011;58887;51.980;4.464;2022-07-22T07:16:34;1.37;;;1.36;;
71183;SDS011;58887;51.980;4.464;2022-07-22T07:18:59;1.29;;;1.29;;
71183;SDS011;58887;51.980;4.464;2022-07-22T07:21:25;1.53;;;1.53;;
71183;SDS011;58887;51.980;4.464;2022-07-22T07:23:51;1.42;;;1.42;;
71183;SDS011;58887;51.980;4.464;2022-07-22T07:26:16;1.45;;;1.44;;
71183;SDS011;58887;51.980;4.464;2022-07-22T07:28:41;1.49;;;1.49;;
71183;SDS011;58887;51.980;4.464;2022-07-22T07:31:07;1.34;;;1.33;;
71183;SDS011;58887;51.980;4.464;2022-07-22T07:33:33;1.63;;;1.50;;
71183;SDS011;58887;51.980;4.464;2022-07-22T07:35:59;1.67;;;1.55;;
71183;SDS011;58887;51.980;4.464;2022-07-22T07:38:25;1.46;;;1.35;;
71183;SDS011;58887;51.980;4.464;2022-07-22T07:40:51;1.62;;;1.50;;
71183;SDS011;58887;51.980;4.464;2022-07-22T07:43:16;1.47;;;1.36;;
71183;SDS011;58887;51.980;4.464;2022-07-22T07:45:42;1.50;;;1.39;;
71183;SDS011;58887;51.980;4.464;2022-07-22T07:48:07;1.39;;;1.30;;
71183;SDS011;58887;51.980;4.464;2022-07-22T07:50:33;1.54;;;1.44;;
71183;SDS011;58887;51.980;4.464;2022-07-22T07:52:58;1.64;;;1.50;;
71183;SDS011;58887;51.980;4.464;2022-07-22T07:55:24;1.54;;;1.41;;
71183;SDS011;58887;51.980;4.464;2022-07-22T07:57:49;1.85;;;1.71;;
71183;SDS011;58887;51.980;4.464;2022-07-22T08:00:16;1.96;;;1.81;;
71183;SDS011;58887;51.980;4.464;2022-07-22T08:02:45;1.53;;;1.44;;
71183;SDS011;58887;51.980;4.464;2022-07-22T08:05:10;1.87;;;1.81;;
71183;SDS011;58887;51.980;4.464;2022-07-22T08:07:36;2.00;;;1.90;;
71183;SDS011;58887;51.980;4.464;2022-07-22T08:10:04;1.82;;;1.76;;
71183;SDS011;58887;51.980;4.464;2022-07-22T08:12:31;1.83;;;1.72;;
71183;SDS011;58887;51.980;4.464;2022-07-22T08:14:56;1.82;;;1.68;;
71183;SDS011;58887;51.980;4.464;2022-07-22T08:17:22;1.78;;;1.64;;
71183;SDS011;58887;51.980;4.464;2022-07-22T08:19:47;1.85;;;1.70;;
71183;SDS011;58887;51.980;4.464;2022-07-22T08:22:13;1.86;;;1.73;;
71183;SDS011;58887;51.980;4.464;2022-07-22T08:24:38;1.83;;;1.69;;
71183;SDS011;58887;51.980;4.464;2022-07-22T08:27:04;1.85;;;1.71;;
71183;SDS011;58887;51.980;4.464;2022-07-22T08:29:29;1.77;;;1.68;;
71183;SDS011;58887;51.980;4.464;2022-07-22T08:31:54;1.63;;;1.59;;
71183;SDS011;58887;51.980;4.464;2022-07-22T08:34:20;1.73;;;1.67;;
71183;SDS011;58887;51.980;4.464;2022-07-22T08:36:46;1.72;;;1.66;;
71183;SDS011;58887;51.980;4.464;2022-07-22T08:39:11;1.68;;;1.67;;
71183;SDS011;58887;51.980;4.464;2022-07-22T08:41:37;1.86;;;1.79;;
71183;SDS011;58887;51.980;4.464;2022-07-22T08:44:04;1.79;;;1.78;;
71183;SDS011;58887;51.980;4.464;2022-07-22T08:46:33;1.67;;;1.67;;
71183;SDS011;58887;51.980;4.464;2022-07-22T08:48:59;1.51;;;1.51;;
71183;SDS011;58887;51.980;4.464;2022-07-22T08:51:26;1.74;;;1.74;;
71183;SDS011;58887;51.980;4.464;2022-07-22T08:53:53;1.64;;;1.64;;
71183;SDS011;58887;51.980;4.464;2022-07-22T08:56:19;1.62;;;1.62;;
71183;SDS011;58887;51.980;4.464;2022-07-22T08:58:45;1.74;;;1.74;;
71183;SDS011;58887;51.980;4.464;2022-07-22T09:01:14;1.66;;;1.66;;
71183;SDS011;58887;51.980;4.464;2022-07-22T09:03:49;1.52;;;1.52;;
71183;SDS011;58887;51.980;4.464;2022-07-22T09:06:17;1.59;;;1.59;;
71183;SDS011;58887;51.980;4.464;2022-07-22T09:11:18;1.49;;;1.47;;
71183;SDS011;58887;51.980;4.464;2022-07-22T09:13:46;1.58;;;1.58;;
71183;SDS011;58887;51.980;4.464;2022-07-22T09:16:12;1.66;;;1.66;;
71183;SDS011;58887;51.980;4.464;2022-07-22T09:18:45;1.74;;;1.74;;
71183;SDS011;58887;51.980;4.464;2022-07-22T09:21:11;1.50;;;1.50;;
71183;SDS011;58887;51.980;4.464;2022-07-22T09:23:39;1.72;;;1.72;;
71183;SDS011;58887;51.980;4.464;2022-07-22T09:26:06;1.65;;;1.65;;
71183;SDS011;58887;51.980;4.464;2022-07-22T09:28:32;1.47;;;1.47;;
71183;SDS011;58887;51.980;4.464;2022-07-22T09:30:57;1.65;;;1.65;;
71183;SDS011;58887;51.980;4.464;2022-07-22T09:33:23;1.45;;;1.45;;
71183;SDS011;58887;51.980;4.464;2022-07-22T09:35:49;1.43;;;1.43;;
71183;SDS011;58887;51.980;4.464;2022-07-22T09:38:16;1.51;;;1.51;;
71183;SDS011;58887;51.980;4.464;2022-07-22T09:40:47;1.54;;;1.54;;
71183;SDS011;58887;51.980;4.464;2022-07-22T09:43:14;1.71;;;1.71;;
71183;SDS011;58887;51.980;4.464;2022-07-22T09:45:46;1.47;;;1.47;;
71183;SDS011;58887;51.980;4.464;2022-07-22T09:48:13;1.68;;;1.68;;
71183;SDS011;58887;51.980;4.464;2022-07-22T09:50:39;1.64;;;1.64;;
71183;SDS011;58887;51.980;4.464;2022-07-22T09:53:05;1.61;;;1.61;;
71183;SDS011;58887;51.980;4.464;2022-07-22T09:55:30;1.59;;;1.59;;
71183;SDS011;58887;51.980;4.464;2022-07-22T09:57:58;1.61;;;1.61;;
71183;SDS011;58887;51.980;4.464;2022-07-22T10:00:25;1.63;;;1.63;;
71183;SDS011;58887;51.980;4.464;2022-07-22T10:05:29;1.53;;;1.53;;
71183;SDS011;58887;51.980;4.464;2022-07-22T10:07:57;1.60;;;1.60;;
71183;SDS011;58887;51.980;4.464;2022-07-22T10:10:26;1.53;;;1.53;;
71183;SDS011;58887;51.980;4.464;2022-07-22T10:12:54;1.61;;;1.61;;
71183;SDS011;58887;51.980;4.464;2022-07-22T10:15:22;1.66;;;1.66;;
71183;SDS011;58887;51.980;4.464;2022-07-22T10:17:50;1.52;;;1.52;;
71183;SDS011;58887;51.980;4.464;2022-07-22T10:20:19;1.64;;;1.64;;
71183;SDS011;58887;51.980;4.464;2022-07-22T10:22:48;1.63;;;1.63;;
71183;SDS011;58887;51.980;4.464;2022-07-22T10:25:25;1.50;;;1.50;;
71183;SDS011;58887;51.980;4.464;2022-07-22T10:27:57;1.66;;;1.66;;
71183;SDS011;58887;51.980;4.464;2022-07-22T10:30:24;1.77;;;1.77;;
71183;SDS011;58887;51.980;4.464;2022-07-22T10:33:06;1.59;;;1.59;;
71183;SDS011;58887;51.980;4.464;2022-07-22T10:35:35;1.59;;;1.59;;
71183;SDS011;58887;51.980;4.464;2022-07-22T10:38:03;1.58;;;1.58;;
71183;SDS011;58887;51.980;4.464;2022-07-22T10:40:31;1.86;;;1.86;;
71183;SDS011;58887;51.980;4.464;2022-07-22T10:43:11;1.60;;;1.60;;
71183;SDS011;58887;51.980;4.464;2022-07-22T10:45:38;1.58;;;1.58;;
71183;SDS011;58887;51.980;4.464;2022-07-22T10:48:05;1.61;;;1.61;;
71183;SDS011;58887;51.980;4.464;2022-07-22T10:53:06;1.65;;;1.65;;
71183;SDS011;58887;51.980;4.464;2022-07-22T10:55:38;1.79;;;1.79;;
71183;SDS011;58887;51.980;4.464;2022-07-22T11:01:02;1.83;;;1.83;;
71183;SDS011;58887;51.980;4.464;2022-07-22T11:03:33;1.79;;;1.79;;
71183;SDS011;58887;51.980;4.464;2022-07-22T11:08:51;1.77;;;1.77;;
71183;SDS011;58887;51.980;4.464;2022-07-22T11:11:44;1.80;;;1.80;;
71183;SDS011;58887;51.980;4.464;2022-07-22T11:19:24;1.89;;;1.89;;
71183;SDS011;58887;51.980;4.464;2022-07-22T11:21:54;2.06;;;2.06;;
71183;SDS011;58887;51.980;4.464;2022-07-22T11:24:29;2.12;;;2.12;;
71183;SDS011;58887;51.980;4.464;2022-07-22T11:26:56;1.88;;;1.88;;
71183;SDS011;58887;51.980;4.464;2022-07-22T11:29:34;2.07;;;2.07;;
71183;SDS011;58887;51.980;4.464;2022-07-22T11:32:05;1.73;;;1.73;;
71183;SDS011;58887;51.980;4.464;2022-07-22T11:34:34;1.78;;;1.78;;
71183;SDS011;58887;51.980;4.464;2022-07-22T11:37:01;1.71;;;1.71;;
71183;SDS011;58887;51.980;4.464;2022-07-22T11:39:27;1.90;;;1.90;;
71183;SDS011;58887;51.980;4.464;2022-07-22T11:41:56;1.85;;;1.85;;
71183;SDS011;58887;51.980;4.464;2022-07-22T11:44:26;1.95;;;1.95;;
71183;SDS011;58887;51.980;4.464;2022-07-22T11:46:53;1.85;;;1.85;;
71183;SDS011;58887;51.980;4.464;2022-07-22T11:49:23;1.96;;;1.96;;
71183;SDS011;58887;51.980;4.464;2022-07-22T11:51:50;1.87;;;1.87;;
71183;SDS011;58887;51.980;4.464;2022-07-22T11:54:17;2.08;;;2.08;;
71183;SDS011;58887;51.980;4.464;2022-07-22T11:56:43;1.96;;;1.96;;
71183;SDS011;58887;51.980;4.464;2022-07-22T11:59:11;1.94;;;1.94;;
71183;SDS011;58887;51.980;4.464;2022-07-22T12:01:39;1.91;;;1.91;;
71183;SDS011;58887;51.980;4.464;2022-07-22T12:04:09;1.98;;;1.98;;
71183;SDS011;58887;51.980;4.464;2022-07-22T12:06:38;1.97;;;1.97;;
71183;SDS011;58887;51.980;4.464;2022-07-22T12:09:09;1.78;;;1.78;;
71183;SDS011;58887;51.980;4.464;2022-07-22T12:11:42;1.94;;;1.94;;
71183;SDS011;58887;51.980;4.464;2022-07-22T12:14:10;1.89;;;1.89;;
71183;SDS011;58887;51.980;4.464;2022-07-22T12:17:04;1.88;;;1.88;;
71183;SDS011;58887;51.980;4.464;2022-07-22T12:19:35;2.13;;;2.13;;
71183;SDS011;58887;51.980;4.464;2022-07-22T12:22:12;2.12;;;2.12;;
71183;SDS011;58887;51.980;4.464;2022-07-22T12:24:46;2.07;;;2.07;;
71183;SDS011;58887;51.980;4.464;2022-07-22T12:27:26;2.01;;;2.01;;
71183;SDS011;58887;51.980;4.464;2022-07-22T12:29:52;1.99;;;1.99;;
71183;SDS011;58887;51.980;4.464;2022-07-22T12:32:24;2.02;;;2.02;;
71183;SDS011;58887;51.980;4.464;2022-07-22T12:37:23;1.87;;;1.87;;
71183;SDS011;58887;51.980;4.464;2022-07-22T12:39:52;1.67;;;1.67;;
71183;SDS011;58887;51.980;4.464;2022-07-22T12:42:20;1.72;;;1.72;;
71183;SDS011;58887;51.980;4.464;2022-07-22T12:44:54;1.88;;;1.88;;
71183;SDS011;58887;51.980;4.464;2022-07-22T12:47:38;1.78;;;1.78;;
71183;SDS011;58887;51.980;4.464;2022-07-22T12:52:51;1.69;;;1.69;;
71183;SDS011;58887;51.980;4.464;2022-07-22T12:55:18;1.55;;;1.55;;
71183;SDS011;58887;51.980;4.464;2022-07-22T12:57:44;1.67;;;1.67;;
71183;SDS011;58887;51.980;4.464;2022-07-22T13:00:10;1.70;;;1.70;;
71183;SDS011;58887;51.980;4.464;2022-07-22T13:02:36;1.68;;;1.68;;
71183;SDS011;58887;51.980;4.464;2022-07-22T13:05:02;1.73;;;1.73;;
71183;SDS011;58887;51.980;4.464;2022-07-22T13:07:28;1.79;;;1.79;;
71183;SDS011;58887;51.980;4.464;2022-07-22T13:09:53;1.79;;;1.79;;
71183;SDS011;58887;51.980;4.464;2022-07-22T13:12:19;1.78;;;1.78;;
71183;SDS011;58887;51.980;4.464;2022-07-22T13:14:44;1.58;;;1.58;;
71183;SDS011;58887;51.980;4.464;2022-07-22T13:17:10;1.59;;;1.59;;
71183;SDS011;58887;51.980;4.464;2022-07-22T13:19:37;1.69;;;1.69;;
71183;SDS011;58887;51.980;4.464;2022-07-22T13:22:02;1.60;;;1.60;;
71183;SDS011;58887;51.980;4.464;2022-07-22T13:24:28;1.72;;;1.72;;
71183;SDS011;58887;51.980;4.464;2022-07-22T13:26:53;1.46;;;1.46;;
71183;SDS011;58887;51.980;4.464;2022-07-22T13:29:19;1.57;;;1.57;;
71183;SDS011;58887;51.980;4.464;2022-07-22T13:31:44;1.57;;;1.57;;
71183;SDS011;58887;51.980;4.464;2022-07-22T13:34:10;1.48;;;1.48;;
71183;SDS011;58887;51.980;4.464;2022-07-22T13:36:35;1.33;;;1.33;;
71183;SDS011;58887;51.980;4.464;2022-07-22T13:39:01;1.27;;;1.27;;
71183;SDS011;58887;51.980;4.464;2022-07-22T13:41:27;1.31;;;1.31;;
71183;SDS011;58887;51.980;4.464;2022-07-22T13:43:53;1.11;;;1.11;;
71183;SDS011;58887;51.980;4.464;2022-07-22T13:46:18;1.40;;;1.40;;
71183;SDS011;58887;51.980;4.464;2022-07-22T13:48:44;1.40;;;1.40;;
71183;SDS011;58887;51.980;4.464;2022-07-22T13:51:10;1.45;;;1.45;;
71183;SDS011;58887;51.980;4.464;2022-07-22T13:53:37;1.66;;;1.66;;
71183;SDS011;58887;51.980;4.464;2022-07-22T13:56:03;1.49;;;1.49;;
71183;SDS011;58887;51.980;4.464;2022-07-22T13:58:29;1.32;;;1.32;;
71183;SDS011;58887;51.980;4.464;2022-07-22T14:00:55;1.30;;;1.30;;
71183;SDS011;58887;51.980;4.464;2022-07-22T14:03:21;1.51;;;1.51;;
71183;SDS011;58887;51.980;4.464;2022-07-22T14:05:47;1.52;;;1.52;;
71183;SDS011;58887;51.980;4.464;2022-07-22T14:08:12;1.42;;;1.42;;
71183;SDS011;58887;51.980;4.464;2022-07-22T14:10:38;1.40;;;1.40;;
71183;SDS011;58887;51.980;4.464;2022-07-22T14:13:03;1.37;;;1.37;;
71183;SDS011;58887;51.980;4.464;2022-07-22T14:15:29;1.51;;;1.51;;
71183;SDS011;58887;51.980;4.464;2022-07-22T14:17:55;1.35;;;1.35;;
71183;SDS011;58887;51.980;4.464;2022-07-22T14:20:20;1.33;;;1.33;;
71183;SDS011;58887;51.980;4.464;2022-07-22T14:22:45;1.42;;;1.42;;
71183;SDS011;58887;51.980;4.464;2022-07-22T14:25:11;1.41;;;1.41;;
71183;SDS011;58887;51.980;4.464;2022-07-22T14:27:36;1.38;;;1.38;;
71183;SDS011;58887;51.980;4.464;2022-07-22T14:30:02;1.29;;;1.29;;
71183;SDS011;58887;51.980;4.464;2022-07-22T14:32:28;1.29;;;1.29;;
71183;SDS011;58887;51.980;4.464;2022-07-22T14:34:54;1.36;;;1.36;;
71183;SDS011;58887;51.980;4.464;2022-07-22T14:37:19;1.30;;;1.30;;
71183;SDS011;58887;51.980;4.464;2022-07-22T14:39:45;1.39;;;1.39;;
71183;SDS011;58887;51.980;4.464;2022-07-22T14:42:11;1.35;;;1.35;;
71183;SDS011;58887;51.980;4.464;2022-07-22T14:44:36;1.33;;;1.33;;
71183;SDS011;58887;51.980;4.464;2022-07-22T14:47:01;1.23;;;1.23;;
71183;SDS011;58887;51.980;4.464;2022-07-22T14:49:27;1.42;;;1.42;;
71183;SDS011;58887;51.980;4.464;2022-07-22T14:51:52;1.35;;;1.35;;
71183;SDS011;58887;51.980;4.464;2022-07-22T14:54:18;1.22;;;1.22;;
71183;SDS011;58887;51.980;4.464;2022-07-22T14:56:44;1.12;;;1.12;;
71183;SDS011;58887;51.980;4.464;2022-07-22T14:59:09;1.18;;;1.18;;
71183;SDS011;58887;51.980;4.464;2022-07-22T15:01:35;1.32;;;1.32;;
71183;SDS011;58887;51.980;4.464;2022-07-22T15:04:00;1.32;;;1.32;;
71183;SDS011;58887;51.980;4.464;2022-07-22T15:06:26;1.16;;;1.16;;
71183;SDS011;58887;51.980;4.464;2022-07-22T15:08:52;1.25;;;1.25;;